Overview Statistics Trail Chart Weather Telemetry Raw packets
 

This is the latest recevied telemetry packets stored in our database for station/object HS9BZG. If no packets are shown the sender has not sent any telemetry packets the latest 10 day(s).

Telemetry packets is used to share measurements like repeteater parameters, battery voltage, radiation readings (or any other measurements).

<< 1 2 3 4 >>
Time TEMP* HUM* BAR* BAT* Value5*
1778073663 33.66 °C 40.8 %RH 988.6 hPa 4.17 V 0
1778073063 33.75 °C 40.5 %RH 988.5 hPa 4.16 V 0
1778072463 33.89 °C 40.1 %RH 988.5 hPa 4.16 V 0
1778071863 33.98 °C 39.8 %RH 988.5 hPa 4.16 V 0
1778071263 34.04 °C 39.5 %RH 988.5 hPa 4.16 V 0
1778070663 34.16 °C 39.3 %RH 988.4 hPa 4.16 V 0
1778070063 34.26 °C 39.1 %RH 988.3 hPa 4.16 V 0
1778069463 34.44 °C 39 %RH 988.1 hPa 4.16 V 0
1778068863 34.57 °C 38.7 %RH 987.9 hPa 4.16 V 0
1778068263 34.8 °C 38.5 %RH 987.7 hPa 4.16 V 0
1778067663 35.03 °C 38.3 %RH 987.6 hPa 4.16 V 0
1778067063 35.1 °C 38.2 %RH 987.4 hPa 4.16 V 0
1778066463 35.43 °C 37.5 %RH 987.2 hPa 4.1 V 0
1778065863 36.13 °C 37 %RH 986.9 hPa 4.12 V 0
1778065262 35.85 °C 37.1 %RH 986.7 hPa 4.16 V 0
1778064662 35.75 °C 36.8 %RH 986.7 hPa 4.16 V 0
1778064063 35.96 °C 36.7 %RH 986.7 hPa 4.16 V 0
1778063462 35.97 °C 36.8 %RH 986.7 hPa 4.16 V 0
1778062862 35.77 °C 36.9 %RH 986.7 hPa 4.16 V 0
1778062262 35.37 °C 37.1 %RH 986.7 hPa 4.17 V 0
1778061662 35.19 °C 37.1 %RH 986.7 hPa 4.16 V 0
1778061062 35.15 °C 37.2 %RH 986.8 hPa 4.16 V 0
1778060462 35.15 °C 37.2 %RH 986.8 hPa 4.17 V 0
1778059862 34.99 °C 37.3 %RH 986.9 hPa 4.16 V 0
1778059262 34.92 °C 37.3 %RH 986.9 hPa 4.16 V 0
*Used Equation Coefficients:
TEMP: 0, 0.01, 0
HUM: 0, 0.1, 0
BAR: 0, 0.1, 800
BAT: 0, 0.01, 0
Value5: 0, 1, 0

  • The parameter names for the analog channels will be Value1, Value2, Value3 (up to Value5) if station has not sent a PARAM-packet that specifies the parameter names for each analog channel.
  • Each analog value is a decimal number between 000 and 255 (according to APRS specifications). The receiver use the telemetry equation coefficientsto to restore the original sensor values. If no EQNS-packet with equation coefficients is sent we will show the values as is (this corresponds to the equation coefficients a=0, b=1 and c=0).
    The sent equation coefficients is used in the equation: a * value2 + b * value + c.
  • The units for the analog values will not be shown if station has not sent a UNIT-packet specifying what unit's to use.
  • The parameter names for the digital bits will be Bit1, Bit2, Bit3 (up to Bit8) if station has not sent a PARAM-packet that specifies the parameter names for each digital bit.
  • All bit labels will be named "On" if station has not sent a UNIT-packet that specifies the label of each bit.
  • A bit is considered to be On when the bit is 1 if station has not sent a BITS-packet that specifies another "Bit sense" (a BITS-packet specify the state of the bits that match the BIT labels)